Time;durP1;ratioP1;P1;durP2;ratioP2;P2;SDS_P1;SDS_P2;PMS_P1;PMS_P2;Temp;Humidity;BMP_temperature;BMP_pressure;BME280_temperature;BME280_humidity;BME280_pressure;Samples;Min_cycle;Max_cycle;Signal;HPM_P1;HPM_P2
2022/01/17 00:01:41;;;;;;;24.53;16.87;;;;;;;2.10;84.69;98170.25;5045371;28;20202;-72
2022/01/17 00:04:10;;;;;;;22.83;17.67;;;;;;;2.14;84.74;98171.84;5048287;28;20199;-74
2022/01/17 00:06:37;;;;;;;21.30;16.20;;;;;;;2.16;84.57;98166.56;5045597;28;20238;-72
2022/01/17 00:09:03;;;;;;;22.53;16.70;;;;;;;2.14;85.13;98157.94;5048423;28;20195;-71
2022/01/17 00:11:30;;;;;;;24.10;17.93;;;;;;;2.09;84.45;98162.47;5045772;28;20198;-71
2022/01/17 00:13:57;;;;;;;24.17;17.50;;;;;;;2.11;84.87;98165.88;5046548;28;20220;-70
2022/01/17 00:16:33;;;;;;;29.33;19.30;;;;;;;2.11;85.74;98173.72;5046693;28;20258;-75
2022/01/17 00:19:29;;;;;;;24.80;19.07;;;;;;;2.12;85.78;98178.88;5054938;28;20200;-75
2022/01/17 00:21:55;;;;;;;24.90;18.20;;;;;;;2.09;85.62;98178.97;5040054;28;20294;-71
2022/01/17 00:24:22;;;;;;;25.53;19.50;;;;;;;2.15;86.06;98170.09;5044842;28;20202;-68
2022/01/17 00:26:50;;;;;;;24.40;19.07;;;;;;;2.18;85.62;98181.28;5045806;28;20225;-72
2022/01/17 00:29:16;;;;;;;25.37;18.40;;;;;;;2.24;85.61;98174.97;5046538;28;20220;-73
2022/01/17 00:31:42;;;;;;;25.53;19.40;;;;;;;2.27;85.00;98165.25;5047342;28;20207;-68
2022/01/17 00:34:09;;;;;;;26.37;19.40;;;;;;;2.26;85.46;98157.50;5055072;28;20214;-67
2022/01/17 00:36:35;;;;;;;28.60;20.67;;;;;;;2.26;86.46;98160.13;5055290;28;20229;-68
2022/01/17 00:39:03;;;;;;;33.87;22.03;;;;;;;2.21;86.20;98164.63;5036009;28;20221;-68
2022/01/17 00:41:30;;;;;;;31.20;21.73;;;;;;;2.22;86.31;98168.97;5036627;28;20208;-68
2022/01/17 00:43:56;;;;;;;28.57;20.87;;;;;;;2.22;85.59;98166.34;5036880;28;20757;-68
2022/01/17 00:46:22;;;;;;;28.23;20.73;;;;;;;2.27;85.75;98174.84;5051119;28;20277;-68
2022/01/17 00:48:51;;;;;;;27.87;20.03;;;;;;;2.26;85.85;98181.00;5067299;28;20196;-70
2022/01/17 00:51:17;;;;;;;29.80;21.30;;;;;;;2.30;85.41;98180.81;5075685;28;20206;-67
2022/01/17 00:53:44;;;;;;;27.43;19.93;;;;;;;2.27;85.23;98169.63;5076164;28;20203;-68
2022/01/17 00:56:11;;;;;;;27.10;19.63;;;;;;;2.27;85.80;98183.53;5076134;28;20211;-68
2022/01/17 00:58:38;;;;;;;27.30;19.60;;;;;;;2.34;85.85;98178.94;5066102;28;20210;-68
2022/01/17 01:01:04;;;;;;;27.60;20.17;;;;;;;2.34;85.76;98186.78;5055156;28;20218;-67
2022/01/17 01:03:31;;;;;;;29.80;19.50;;;;;;;2.37;85.16;98186.69;5057487;28;20606;-68
2022/01/17 01:05:57;;;;;;;26.20;19.27;;;;;;;2.40;85.25;98186.56;5051148;28;20250;-68
2022/01/17 01:08:24;;;;;;;27.43;19.03;;;;;;;2.34;85.73;98177.19;5063124;28;20545;-69
2022/01/17 01:10:50;;;;;;;25.47;19.53;;;;;;;2.31;86.52;98182.53;5051605;28;20210;-67
2022/01/17 01:13:22;;;;;;;26.73;19.83;;;;;;;2.36;86.82;98191.06;5061087;28;20214;-69
2022/01/17 01:16:09;;;;;;;25.87;19.37;;;;;;;2.35;86.23;98197.16;5052247;28;20202;-68
2022/01/17 01:18:49;;;;;;;24.90;20.00;;;;;;;2.34;85.54;98189.38;5060052;28;20275;-68
2022/01/17 01:21:44;;;;;;;28.00;19.43;;;;;;;2.36;85.68;98196.28;5051307;28;20265;-68
2022/01/17 01:29:46;;;;;;;25.93;19.20;;;;;;;2.38;85.08;98204.03;5081020;28;20193;-67
2022/01/17 01:32:17;;;;;;;25.00;18.73;;;;;;;2.41;85.19;98204.78;5081232;28;20285;-69
2022/01/17 01:34:48;;;;;;;27.57;20.17;;;;;;;2.38;85.35;98204.03;5081357;28;20203;-68
2022/01/17 01:37:14;;;;;;;25.97;19.03;;;;;;;2.33;85.92;98195.53;5081247;28;20211;-68
2022/01/17 01:39:41;;;;;;;27.20;19.60;;;;;;;2.31;85.91;98202.56;5075898;28;20198;-67
2022/01/17 01:42:13;;;;;;;27.07;20.07;;;;;;;2.31;86.12;98197.34;5057028;28;20214;-68
2022/01/17 01:44:41;;;;;;;25.73;18.90;;;;;;;2.32;86.48;98199.03;5038098;28;20705;-68
2022/01/17 01:47:07;;;;;;;26.93;20.27;;;;;;;2.32;86.16;98210.34;5041059;28;20579;-67
2022/01/17 01:49:34;;;;;;;26.30;19.47;;;;;;;2.32;86.36;98210.34;5047454;28;20227;-68
2022/01/17 01:52:00;;;;;;;27.50;20.47;;;;;;;2.39;86.42;98218.81;5048676;28;20201;-68
2022/01/17 01:54:27;;;;;;;28.60;20.73;;;;;;;2.44;85.50;98224.72;5051562;28;20199;-68
2022/01/17 01:56:53;;;;;;;24.77;18.57;;;;;;;2.46;85.68;98221.16;5048913;28;20227;-68
2022/01/17 01:59:22;;;;;;;24.23;18.10;;;;;;;2.45;86.06;98210.75;5051720;28;20211;-68
2022/01/17 02:01:50;;;;;;;24.97;18.20;;;;;;;2.47;86.35;98222.00;5051027;28;20207;-68
2022/01/17 02:04:17;;;;;;;24.67;18.97;;;;;;;2.37;86.88;98218.03;5043901;28;20195;-70
2022/01/17 02:06:43;;;;;;;24.23;18.77;;;;;;;2.35;87.00;98218.06;5052763;28;20249;-66
2022/01/17 02:09:10;;;;;;;26.13;18.60;;;;;;;2.37;86.41;98212.81;5050678;28;20223;-68
2022/01/17 02:11:37;;;;;;;23.53;18.43;;;;;;;2.39;86.66;98216.19;5048549;28;20202;-67
2022/01/17 02:14:05;;;;;;;28.33;19.60;;;;;;;2.39;86.43;98216.19;5037452;28;20207;-68
2022/01/17 02:16:32;;;;;;;29.83;20.43;;;;;;;2.36;86.55;98216.31;5036981;28;20208;-69
2022/01/17 02:19:00;;;;;;;23.77;18.63;;;;;;;2.37;86.33;98218.84;5037496;28;20230;-69
2022/01/17 02:21:45;;;;;;;24.07;18.47;;;;;;;2.43;85.86;98213.44;5037468;28;20227;-68
2022/01/17 02:24:12;;;;;;;24.57;18.50;;;;;;;2.39;86.43;98216.19;5055838;28;20195;-67
2022/01/17 02:26:39;;;;;;;25.73;18.87;;;;;;;2.38;86.58;98209.25;5053952;28;20610;-68
2022/01/17 02:29:06;;;;;;;24.00;17.53;;;;;;;2.40;86.43;98205.72;5039925;28;20232;-69
2022/01/17 02:31:33;;;;;;;24.10;18.60;;;;;;;2.38;86.62;98204.03;5040136;28;20265;-68
2022/01/17 02:34:01;;;;;;;24.77;18.37;;;;;;;2.34;86.52;98207.66;5047927;28;20225;-68
2022/01/17 02:36:29;;;;;;;23.30;17.73;;;;;;;2.36;86.87;98205.88;5048016;28;20532;-67
2022/01/17 02:38:55;;;;;;;25.67;19.47;;;;;;;2.32;86.59;98201.66;5046428;28;20214;-67
2022/01/17 02:41:22;;;;;;;24.87;18.70;;;;;;;2.39;86.66;98192.69;5036401;28;20208;-68
2022/01/17 02:43:48;;;;;;;26.13;18.77;;;;;;;2.41;86.89;98189.13;5036327;28;20207;-69
2022/01/17 02:46:27;;;;;;;24.93;19.83;;;;;;;2.41;87.24;98193.47;5062387;28;20202;-68
2022/01/17 02:48:55;;;;;;;26.17;19.93;;;;;;;2.37;87.02;98192.75;5053605;28;20208;-69
2022/01/17 02:51:21;;;;;;;27.00;19.83;;;;;;;2.42;87.54;98200.41;5037550;28;20225;-67
2022/01/17 02:53:49;;;;;;;28.80;19.13;;;;;;;2.43;86.94;98207.34;5036352;28;20227;-68
2022/01/17 02:56:16;;;;;;;25.13;18.80;;;;;;;2.39;86.93;98217.06;5055390;28;20206;-67
2022/01/17 02:58:43;;;;;;;28.70;20.40;;;;;;;2.42;86.92;98216.94;5042480;28;20246;-68
2022/01/17 03:01:11;;;;;;;28.00;19.77;;;;;;;2.47;87.08;98222.00;5036624;28;20210;-69
2022/01/17 03:03:38;;;;;;;27.03;20.20;;;;;;;2.47;85.73;98228.06;5042372;28;20236;-69
2022/01/17 03:06:05;;;;;;;28.23;19.40;;;;;;;2.49;86.60;98217.56;5055593;28;20267;-69
2022/01/17 03:08:33;;;;;;;23.50;18.73;;;;;;;2.50;86.43;98214.06;5044251;28;20211;-69
2022/01/17 03:11:05;;;;;;;25.47;17.73;;;;;;;2.45;85.94;98221.19;5052354;28;20214;-68
2022/01/17 03:13:33;;;;;;;24.10;18.50;;;;;;;2.47;86.88;98220.25;5056866;28;20188;-69
2022/01/17 03:16:01;;;;;;;27.50;19.37;;;;;;;2.48;86.68;98202.78;5065842;28;20187;-68
2022/01/17 03:18:29;;;;;;;24.47;19.03;;;;;;;2.46;86.72;98191.56;5067748;28;20240;-68
2022/01/17 03:20:56;;;;;;;25.60;20.50;;;;;;;2.47;86.36;98188.06;5050382;28;20210;-67
2022/01/17 03:23:23;;;;;;;28.27;20.20;;;;;;;2.40;86.94;98189.19;5053105;28;20220;-67
2022/01/17 03:25:49;;;;;;;25.97;19.60;;;;;;;2.44;86.73;98196.84;5045623;28;20211;-68
2022/01/17 03:28:17;;;;;;;25.63;20.00;;;;;;;2.40;85.87;98203.09;5038959;28;20216;-67
2022/01/17 03:30:43;;;;;;;26.20;19.07;;;;;;;2.46;86.88;98197.66;5036658;28;20218;-67
2022/01/17 03:33:11;;;;;;;26.13;18.20;;;;;;;2.50;86.60;98198.38;5035791;28;20210;-68
2022/01/17 03:35:39;;;;;;;24.47;17.67;;;;;;;2.48;86.66;98189.75;5046684;28;20229;-68
2022/01/17 03:38:06;;;;;;;23.33;18.17;;;;;;;2.48;86.25;98181.91;5051132;28;20239;-67
2022/01/17 03:40:32;;;;;;;25.53;19.23;;;;;;;2.44;87.06;98186.38;5036660;28;20209;-68
2022/01/17 03:42:59;;;;;;;23.97;17.97;;;;;;;2.45;87.18;98190.72;5049104;28;20225;-68
2022/01/17 03:45:27;;;;;;;23.87;18.67;;;;;;;2.43;86.75;98196.91;5045365;28;20218;-67
2022/01/17 03:47:53;;;;;;;23.77;18.70;;;;;;;2.44;87.27;98206.44;5035827;28;20216;-68
2022/01/17 03:50:22;;;;;;;24.23;19.00;;;;;;;2.41;87.02;98196.09;5043991;28;20213;-68
2022/01/17 03:52:50;;;;;;;25.10;18.47;;;;;;;2.47;87.01;98198.50;5072381;28;20182;-69
2022/01/17 03:55:19;;;;;;;27.60;19.27;;;;;;;2.43;86.76;98202.13;5078733;28;20196;-69
2022/01/17 03:57:46;;;;;;;24.97;18.60;;;;;;;2.45;88.25;98208.13;5078637;28;20234;-68
2022/01/17 04:00:15;;;;;;;21.43;16.57;;;;;;;2.50;87.79;98216.66;5074736;28;20256;-68
2022/01/17 04:02:43;;;;;;;23.57;18.20;;;;;;;2.60;86.47;98210.19;5072360;28;20190;-67
2022/01/17 04:05:10;;;;;;;23.70;17.67;;;;;;;2.58;86.67;98226.84;5067947;28;20246;-67
2022/01/17 04:07:36;;;;;;;24.37;17.97;;;;;;;2.48;86.71;98224.53;5052103;28;20221;-68
2022/01/17 04:10:04;;;;;;;22.67;16.97;;;;;;;2.54;86.08;98238.28;5045573;28;20198;-67
2022/01/17 04:12:31;;;;;;;24.00;17.47;;;;;;;2.58;85.92;98245.97;5055666;28;20220;-68
2022/01/17 04:14:57;;;;;;;21.07;15.33;;;;;;;2.66;85.70;98245.69;5055049;28;20218;-68
2022/01/17 04:17:27;;;;;;;22.97;16.63;;;;;;;2.64;84.80;98237.91;5035755;28;20223;-68
2022/01/17 04:20:02;;;;;;;19.97;15.53;;;;;;;2.60;85.30;98233.69;5036021;28;20223;-67
2022/01/17 04:22:30;;;;;;;20.40;15.60;;;;;;;2.62;86.56;98223.22;5035370;28;20216;-68
2022/01/17 04:24:57;;;;;;;20.07;15.50;;;;;;;2.67;86.33;98221.25;5036084;28;20268;-68
2022/01/17 04:27:23;;;;;;;19.87;15.73;;;;;;;2.68;85.67;98218.59;5055582;28;20516;-68
2022/01/17 04:29:49;;;;;;;18.33;14.97;;;;;;;2.66;86.18;98214.34;5040166;28;20232;-68
2022/01/17 04:32:16;;;;;;;20.03;14.97;;;;;;;2.67;86.16;98206.44;5035718;28;20219;-68
2022/01/17 04:34:42;;;;;;;16.90;13.57;;;;;;;2.70;85.53;98198.50;5035164;28;20538;-66
2022/01/17 04:37:10;;;;;;;16.53;13.73;;;;;;;2.69;85.17;98188.13;5035503;28;20234;-68
2022/01/17 04:39:37;;;;;;;19.27;13.77;;;;;;;2.71;85.74;98184.53;5038640;28;20207;-67
2022/01/17 04:42:10;;;;;;;19.67;14.20;;;;;;;2.70;85.54;98172.38;5039639;28;20211;-68
2022/01/17 04:47:21;;;;;;;16.90;13.40;;;;;;;2.82;85.33;98182.38;5039328;28;20317;-68
2022/01/17 04:49:47;;;;;;;17.80;13.77;;;;;;;2.79;84.07;98174.66;5056561;28;20234;-67
2022/01/17 04:52:15;;;;;;;16.37;12.90;;;;;;;2.76;85.05;98168.69;5057016;28;20206;-67
2022/01/17 04:54:44;;;;;;;18.27;14.00;;;;;;;2.87;84.43;98172.59;5045838;28;20212;-67
2022/01/17 04:57:12;;;;;;;17.80;13.80;;;;;;;2.85;83.66;98177.03;5045224;28;20211;-68
2022/01/17 04:59:40;;;;;;;18.63;14.87;;;;;;;2.87;83.85;98177.81;5044265;28;20656;-67
2022/01/17 05:02:07;;;;;;;17.90;14.30;;;;;;;2.88;83.30;98179.53;5054282;28;20630;-67
2022/01/17 05:04:33;;;;;;;15.93;13.20;;;;;;;2.85;83.21;98174.41;5047534;28;20202;-68
2022/01/17 05:07:00;;;;;;;21.10;15.13;;;;;;;2.96;81.80;98168.78;5058473;28;20235;-67
2022/01/17 05:09:28;;;;;;;18.90;14.97;;;;;;;2.98;82.20;98170.41;5049368;28;20200;-67
2022/01/17 05:11:54;;;;;;;19.07;14.93;;;;;;;2.93;82.79;98177.59;5041739;28;20569;-68
2022/01/17 05:14:21;;;;;;;16.33;13.47;;;;;;;2.94;81.91;98183.69;5039025;28;20218;-67
2022/01/17 05:16:51;;;;;;;19.00;13.77;;;;;;;2.89;82.54;98191.69;5038917;28;20229;-67
2022/01/17 05:22:02;;;;;;;14.53;12.60;;;;;;;2.80;82.09;98210.31;5056497;28;20263;-68
2022/01/17 05:24:29;;;;;;;17.90;13.73;;;;;;;2.77;83.84;98220.00;5046880;28;20238;-69
2022/01/17 05:26:56;;;;;;;18.33;13.27;;;;;;;2.82;83.19;98215.47;5038415;28;20230;-67
2022/01/17 05:29:22;;;;;;;18.30;14.30;;;;;;;2.76;83.23;98219.19;5039541;28;20207;-68
2022/01/17 05:31:49;;;;;;;16.03;13.07;;;;;;;2.73;83.69;98226.28;5052226;28;20202;-67
2022/01/17 05:34:15;;;;;;;15.83;13.80;;;;;;;2.74;83.69;98239.28;5058781;28;20534;-67
2022/01/17 05:36:42;;;;;;;18.00;14.10;;;;;;;2.62;84.33;98255.41;5058366;28;20221;-68
2022/01/17 05:39:08;;;;;;;17.83;13.77;;;;;;;2.67;84.28;98253.47;5043850;28;20254;-68
2022/01/17 05:41:36;;;;;;;16.17;12.90;;;;;;;2.64;84.12;98269.25;5054628;28;20210;-67
2022/01/17 05:44:03;;;;;;;15.77;12.40;;;;;;;2.65;84.01;98268.34;5038547;28;20207;-67
2022/01/17 05:46:29;;;;;;;16.80;12.47;;;;;;;2.62;84.04;98258.03;5051030;28;20210;-67
2022/01/17 05:48:56;;;;;;;15.43;12.80;;;;;;;2.65;83.40;98251.81;5045409;28;20566;-68
2022/01/17 05:51:22;;;;;;;19.20;13.70;;;;;;;2.54;84.13;98253.97;5046008;28;20203;-68
2022/01/17 05:53:49;;;;;;;17.00;12.70;;;;;;;2.46;84.60;98259.44;5045773;28;20206;-68
2022/01/17 05:56:15;;;;;;;19.23;13.90;;;;;;;2.31;84.95;98259.97;5052903;28;20226;-67
2022/01/17 05:58:43;;;;;;;16.93;13.50;;;;;;;2.31;85.20;98270.41;5046458;28;20233;-67
2022/01/17 06:01:12;;;;;;;16.17;13.13;;;;;;;2.29;85.63;98264.41;5045655;28;20210;-68
2022/01/17 06:03:38;;;;;;;17.80;13.37;;;;;;;2.31;84.48;98255.63;5053244;28;20221;-68
2022/01/17 06:06:06;;;;;;;16.97;13.00;;;;;;;2.31;85.15;98249.53;5052639;28;20254;-68
2022/01/17 06:08:32;;;;;;;17.23;13.40;;;;;;;2.26;85.65;98251.47;5042092;28;20210;-66
2022/01/17 06:10:59;;;;;;;16.87;13.20;;;;;;;2.13;85.90;98255.38;5051274;28;20298;-68
2022/01/17 06:13:25;;;;;;;15.57;13.20;;;;;;;2.07;86.30;98255.59;5040228;28;20557;-67
2022/01/17 06:15:53;;;;;;;14.93;12.00;;;;;;;2.12;85.79;98271.97;5039212;28;20221;-69
2022/01/17 06:18:20;;;;;;;14.97;11.87;;;;;;;2.04;85.57;98272.22;5039590;28;20607;-69
2022/01/17 06:20:46;;;;;;;14.80;11.47;;;;;;;2.04;85.18;98263.53;5038240;28;20273;-69
2022/01/17 06:23:13;;;;;;;14.50;11.70;;;;;;;1.94;85.61;98271.69;5038766;28;20218;-68
2022/01/17 06:25:39;;;;;;;15.17;11.80;;;;;;;1.87;86.09;98259.75;5057375;28;20190;-68
2022/01/17 06:28:06;;;;;;;16.63;12.87;;;;;;;1.81;85.90;98265.16;5059549;28;20206;-68
2022/01/17 06:30:32;;;;;;;17.03;13.47;;;;;;;1.77;86.04;98253.09;5059464;28;20214;-69
2022/01/17 06:33:02;;;;;;;15.90;13.07;;;;;;;1.76;86.42;98246.19;5046035;28;20222;-67
2022/01/17 06:35:29;;;;;;;15.17;12.40;;;;;;;1.81;85.85;98239.06;5047083;28;20268;-68
2022/01/17 06:37:55;;;;;;;14.83;12.13;;;;;;;1.76;86.12;98234.91;5050835;28;20202;-68
2022/01/17 06:40:22;;;;;;;16.33;12.03;;;;;;;1.65;86.42;98235.25;5060620;28;20229;-68
2022/01/17 06:42:50;;;;;;;15.13;11.90;;;;;;;1.67;86.42;98243.00;5049768;28;20242;-68
2022/01/17 06:45:18;;;;;;;15.37;12.60;;;;;;;1.52;86.54;98244.38;5046894;28;20238;-68
2022/01/17 06:47:45;;;;;;;14.80;12.27;;;;;;;1.49;86.69;98231.44;5037561;28;20211;-68
2022/01/17 06:50:13;;;;;;;13.27;11.23;;;;;;;1.41;86.82;98233.44;5046326;28;20197;-67
2022/01/17 06:52:40;;;;;;;14.47;12.20;;;;;;;1.38;87.63;98234.38;5053261;28;20213;-67
2022/01/17 06:55:07;;;;;;;15.60;12.80;;;;;;;1.30;87.21;98235.53;5038465;28;20211;-68
2022/01/17 06:57:34;;;;;;;17.57;12.67;;;;;;;1.15;88.38;98241.22;5060339;28;20201;-67
2022/01/17 07:00:01;;;;;;;18.07;13.67;;;;;;;1.00;87.65;98225.13;5060405;28;20275;-67
2022/01/17 07:02:27;;;;;;;15.93;13.00;;;;;;;1.07;88.30;98240.56;5047273;28;20681;-68
2022/01/17 07:04:54;;;;;;;15.77;12.63;;;;;;;1.03;88.81;98237.22;5051481;28;20206;-67
2022/01/17 07:07:22;;;;;;;15.10;12.33;;;;;;;1.03;88.79;98241.59;5038618;28;20244;-66
2022/01/17 07:09:48;;;;;;;19.10;13.47;;;;;;;1.07;89.11;98241.44;5037847;28;20214;-67
2022/01/17 07:12:15;;;;;;;18.97;13.77;;;;;;;1.16;88.97;98235.09;5038736;28;20620;-67
2022/01/17 07:14:42;;;;;;;17.53;13.00;;;;;;;1.16;89.31;98233.34;5037758;28;20213;-67
2022/01/17 07:17:09;;;;;;;15.70;12.60;;;;;;;1.13;88.64;98246.47;5055431;28;20577;-66
2022/01/17 07:19:35;;;;;;;17.33;12.77;;;;;;;1.03;88.87;98252.84;5045492;28;20283;-66
2022/01/17 07:22:02;;;;;;;20.20;14.40;;;;;;;1.07;88.58;98279.66;5053134;28;20215;-67
2022/01/17 07:24:30;;;;;;;18.13;13.30;;;;;;;1.06;88.12;98297.06;5045030;28;20210;-67
2022/01/17 07:26:56;;;;;;;15.47;11.93;;;;;;;1.13;88.75;98306.41;5037441;28;20208;-66
2022/01/17 07:29:23;;;;;;;16.40;12.40;;;;;;;1.08;87.03;98304.81;5037186;28;20218;-66
2022/01/17 07:31:49;;;;;;;16.57;13.13;;;;;;;1.06;88.04;98314.44;5045569;28;20215;-66
2022/01/17 07:34:16;;;;;;;15.17;12.40;;;;;;;0.93;90.08;98346.03;5054717;28;20213;-66
2022/01/17 07:36:42;;;;;;;14.97;12.00;;;;;;;0.81;89.52;98380.25;5043607;28;20211;-65
2022/01/17 07:39:09;;;;;;;17.53;12.63;;;;;;;0.85;89.93;98381.84;5043081;28;20636;-66
2022/01/17 07:41:37;;;;;;;16.00;12.43;;;;;;;0.96;89.09;98372.00;5039298;28;20214;-65
2022/01/17 07:44:07;;;;;;;16.30;11.83;;;;;;;0.99;89.06;98350.22;5059086;28;20210;-65
2022/01/17 07:46:36;;;;;;;16.37;12.70;;;;;;;0.97;89.95;98337.25;5067102;28;20268;-66
2022/01/17 07:49:14;;;;;;;20.90;13.97;;;;;;;0.91;89.82;98327.00;5061147;28;20209;-66
2022/01/17 07:51:43;;;;;;;19.73;13.50;;;;;;;0.96;90.04;98319.03;5062285;28;20230;-67
2022/01/17 07:54:11;;;;;;;18.43;12.57;;;;;;;0.94;90.04;98326.91;5058159;28;20682;-65
2022/01/17 07:56:40;;;;;;;20.37;13.60;;;;;;;0.95;90.12;98327.78;5058568;28;20698;-65
2022/01/17 07:59:07;;;;;;;21.57;14.67;;;;;;;0.99;89.97;98351.06;5044952;28;20551;-66
2022/01/17 08:01:34;;;;;;;19.57;13.20;;;;;;;1.04;90.06;98343.13;5064225;28;20204;-65
2022/01/17 08:04:00;;;;;;;20.30;13.93;;;;;;;1.14;89.69;98354.13;5050951;28;20231;-67
2022/01/17 08:06:27;;;;;;;20.03;13.73;;;;;;;1.25;89.42;98367.72;5046982;28;20236;-67
2022/01/17 08:08:55;;;;;;;17.33;13.47;;;;;;;1.21;88.78;98366.09;5048049;28;20203;-66
2022/01/17 08:11:21;;;;;;;16.50;12.93;;;;;;;1.25;89.28;98350.31;5039099;28;20629;-66
2022/01/17 08:13:49;;;;;;;15.20;12.47;;;;;;;1.35;89.56;98340.47;5061136;28;20227;-66
2022/01/17 08:16:16;;;;;;;15.60;12.60;;;;;;;1.37;89.79;98336.09;5068628;28;20195;-67
2022/01/17 08:18:42;;;;;;;14.37;11.97;;;;;;;1.41;89.00;98335.97;5039987;28;20234;-66
2022/01/17 08:21:09;;;;;;;15.57;12.10;;;;;;;1.32;89.74;98337.97;5036067;28;20222;-66
2022/01/17 08:23:36;;;;;;;16.73;12.57;;;;;;;1.41;89.50;98349.00;5037522;28;20212;-66
2022/01/17 08:26:02;;;;;;;15.10;12.40;;;;;;;1.44;89.65;98348.91;5035743;28;20239;-65
2022/01/17 08:28:29;;;;;;;15.87;11.23;;;;;;;1.52;89.72;98344.28;5040607;28;20224;-65
2022/01/17 08:30:57;;;;;;;11.73;10.27;;;;;;;1.62;89.27;98341.41;5038086;28;20210;-67
2022/01/17 08:33:23;;;;;;;13.07;10.50;;;;;;;1.70;89.21;98344.66;5035749;28;20210;-65
2022/01/17 08:35:50;;;;;;;15.00;11.50;;;;;;;1.77;89.29;98347.00;5036214;28;20218;-65
2022/01/17 08:38:16;;;;;;;14.17;12.10;;;;;;;1.90;88.74;98353.56;5043332;28;20199;-66
2022/01/17 08:40:43;;;;;;;14.83;11.77;;;;;;;1.88;88.36;98355.34;5055960;28;20226;-66
2022/01/17 08:43:09;;;;;;;14.63;11.77;;;;;;;1.85;89.09;98355.44;5037509;28;20202;-65
2022/01/17 08:45:36;;;;;;;18.83;13.50;;;;;;;2.00;89.17;98354.97;5036079;28;20215;-65
2022/01/17 08:48:04;;;;;;;16.70;13.33;;;;;;;2.11;88.46;98351.16;5035665;28;20217;-66
2022/01/17 08:50:31;;;;;;;15.03;12.33;;;;;;;2.24;88.16;98358.53;5036194;28;20614;-66
2022/01/17 08:52:57;;;;;;;17.13;14.00;;;;;;;2.36;87.96;98357.28;5036225;28;20225;-66
2022/01/17 08:55:25;;;;;;;17.37;13.80;;;;;;;2.46;88.19;98345.63;5035805;28;20218;-65
2022/01/17 08:57:51;;;;;;;18.40;13.43;;;;;;;2.54;86.88;98341.00;5035583;28;20543;-67
2022/01/17 09:00:20;;;;;;;15.47;12.10;;;;;;;2.59;87.36;98343.47;5035448;28;20289;-66
2022/01/17 09:02:46;;;;;;;14.67;11.07;;;;;;;2.70;86.27;98352.59;5038552;28;20219;-67
2022/01/17 09:05:14;;;;;;;15.83;12.77;;;;;;;2.79;86.30;98367.13;5048895;28;20705;-66
2022/01/17 09:07:41;;;;;;;18.37;13.93;;;;;;;2.96;85.25;98380.44;5035375;28;20531;-67
2022/01/17 09:10:08;;;;;;;17.30;13.13;;;;;;;3.47;82.78;98377.72;5043326;28;20203;-66
2022/01/17 09:12:34;;;;;;;21.63;15.17;;;;;;;4.15;80.07;98376.78;5043640;28;20207;-66
2022/01/17 09:15:01;;;;;;;20.43;15.07;;;;;;;4.80;76.73;98388.03;5057262;28;20207;-66
2022/01/17 09:17:28;;;;;;;22.03;15.33;;;;;;;5.28;73.71;98399.94;5063026;28;20254;-66
2022/01/17 09:19:54;;;;;;;21.33;16.87;;;;;;;5.70;72.92;98403.28;5065204;28;20655;-66
2022/01/17 09:22:22;;;;;;;22.13;16.40;;;;;;;5.95;70.99;98406.47;5062667;28;20489;-67
2022/01/17 09:24:48;;;;;;;22.43;17.03;;;;;;;6.41;70.31;98413.00;5067700;28;20207;-66
2022/01/17 09:27:16;;;;;;;22.13;17.47;;;;;;;6.72;67.71;98404.50;5067740;28;20232;-66
2022/01/17 09:29:43;;;;;;;21.33;16.67;;;;;;;6.84;67.45;98397.75;5068285;28;20222;-66
2022/01/17 09:32:10;;;;;;;20.20;15.63;;;;;;;7.69;65.62;98396.75;5066457;28;20200;-67
2022/01/17 09:34:36;;;;;;;18.13;15.10;;;;;;;8.25;63.75;98398.09;5049994;28;20208;-67
2022/01/17 09:37:03;;;;;;;19.20;14.83;;;;;;;9.43;58.83;98384.06;5048222;28;20196;-67
2022/01/17 09:39:31;;;;;;;18.20;16.23;;;;;;;9.29;58.21;98391.09;5045794;28;20227;-67
2022/01/17 09:41:58;;;;;;;22.77;18.37;;;;;;;9.10;58.55;98394.03;5040276;28;20211;-66
2022/01/17 09:44:24;;;;;;;25.27;18.93;;;;;;;9.21;58.24;98393.38;5042443;28;20206;-67
2022/01/17 09:46:54;;;;;;;19.03;15.10;;;;;;;9.20;57.49;98403.09;5038818;28;20204;-65
2022/01/17 09:49:29;;;;;;;16.60;14.77;;;;;;;9.43;58.25;98410.47;5037638;28;20579;-66
2022/01/17 09:52:08;;;;;;;20.80;16.67;;;;;;;8.91;58.48;98407.44;5053513;28;20205;-66
2022/01/17 09:54:37;;;;;;;16.73;14.50;;;;;;;9.17;58.32;98412.97;5052010;28;20219;-67
2022/01/17 09:57:08;;;;;;;17.07;14.90;;;;;;;9.44;57.63;98412.16;5038269;28;20200;-66
2022/01/17 09:59:36;;;;;;;17.83;14.57;;;;;;;10.13;55.83;98421.13;5038021;28;20219;-66
2022/01/17 10:02:03;;;;;;;18.70;15.25;;;;;;;10.38;53.87;98432.69;5046668;28;20219;-67
2022/01/17 10:04:30;;;;;;;15.18;13.57;;;;;;;10.30;53.63;98423.56;5052882;28;20242;-68
2022/01/17 10:06:58;;;;;;;16.40;13.65;;;;;;;10.29;54.05;98417.41;5045110;28;20791;-67
2022/01/17 10:09:25;;;;;;;14.75;13.25;;;;;;;10.30;53.97;98410.34;5049172;28;20646;-68
2022/01/17 10:12:05;;;;;;;15.30;12.57;;;;;;;11.35;51.88;98393.59;5062213;28;20203;-68
2022/01/17 10:14:36;;;;;;;14.35;12.88;;;;;;;11.33;52.55;98393.72;5058943;28;20218;-68
2022/01/17 10:17:08;;;;;;;14.15;12.75;;;;;;;12.01;51.40;98392.53;5052189;28;20204;-67
2022/01/17 10:19:35;;;;;;;14.40;13.00;;;;;;;12.32;50.07;98394.66;5046394;28;20211;-67
2022/01/17 10:22:09;;;;;;;13.90;12.60;;;;;;;12.86;46.49;98401.19;5052028;28;20251;-66
2022/01/17 10:24:43;;;;;;;12.77;11.57;;;;;;;12.82;47.09;98393.59;5037475;28;20207;-67
2022/01/17 10:27:25;;;;;;;12.85;11.55;;;;;;;13.55;45.65;98402.16;5037758;28;20649;-68
2022/01/17 10:30:20;;;;;;;12.70;10.75;;;;;;;14.01;44.08;98393.25;5037280;28;20699;-67
2022/01/17 10:35:32;;;;;;;11.57;10.23;;;;;;;14.62;41.73;98395.38;5056327;28;20214;-67
2022/01/17 10:38:06;;;;;;;12.15;10.95;;;;;;;14.28;43.18;98401.66;5041290;28;20277;-67
2022/01/17 10:40:36;;;;;;;11.65;10.45;;;;;;;14.71;42.06;98407.91;5045781;28;20214;-73
2022/01/17 10:43:05;;;;;;;12.35;11.18;;;;;;;14.63;41.86;98405.03;5068939;28;20212;-77
2022/01/17 10:45:37;;;;;;;11.80;10.70;;;;;;;15.88;39.32;98408.66;5057955;28;20188;-74
2022/01/17 10:48:04;;;;;;;12.07;10.88;;;;;;;14.66;41.69;98418.13;5079159;28;20179;-76
2022/01/17 10:50:33;;;;;;;11.32;10.30;;;;;;;14.92;41.16;98419.47;5079416;28;20213;-74
2022/01/17 10:53:02;;;;;;;11.30;10.23;;;;;;;14.55;41.69;98420.78;5076891;28;20221;-73
2022/01/17 10:55:30;;;;;;;10.32;9.43;;;;;;;15.04;40.23;98422.09;5057553;28;20203;-74
2022/01/17 10:58:01;;;;;;;10.02;9.10;;;;;;;15.26;39.25;98416.66;5058332;28;20203;-74
2022/01/17 11:00:30;;;;;;;10.63;9.68;;;;;;;14.83;39.64;98425.56;5053104;28;20204;-74
2022/01/17 11:02:58;;;;;;;11.02;9.93;;;;;;;14.20;42.81;98420.09;5071095;28;20207;-73
2022/01/17 11:05:27;;;;;;;11.45;10.35;;;;;;;13.58;42.59;98417.88;5076049;28;20265;-72
2022/01/17 11:07:55;;;;;;;12.02;10.75;;;;;;;12.96;43.16;98415.50;5052953;28;20196;-76
2022/01/17 11:10:24;;;;;;;10.95;9.93;;;;;;;12.41;45.14;98412.56;5057071;28;20234;-73
2022/01/17 11:12:52;;;;;;;12.20;11.07;;;;;;;11.38;48.15;98409.25;5063180;28;20199;-73
2022/01/17 11:15:19;;;;;;;11.38;10.18;;;;;;;10.93;48.21;98407.94;5054225;28;20208;-74
2022/01/17 11:17:50;;;;;;;11.18;10.00;;;;;;;11.05;48.85;98417.72;5065661;28;20274;-72
2022/01/17 11:20:19;;;;;;;11.90;10.23;;;;;;;10.62;50.29;98424.13;5068702;28;20262;-72
2022/01/17 11:22:47;;;;;;;10.50;9.33;;;;;;;10.57;49.60;98437.66;5066456;28;20195;-73
2022/01/17 11:25:15;;;;;;;11.70;9.27;;;;;;;10.26;52.17;98432.63;5074607;28;20199;-66
2022/01/17 11:27:42;;;;;;;10.50;9.00;;;;;;;9.86;53.04;98434.25;5066970;28;20220;-67
2022/01/17 11:30:10;;;;;;;10.67;9.07;;;;;;;9.39;53.77;98421.28;5068275;28;20615;-67
2022/01/17 11:32:36;;;;;;;12.77;9.87;;;;;;;9.33;54.12;98416.38;5056596;28;20204;-66
2022/01/17 11:35:06;;;;;;;9.67;8.67;;;;;;;9.62;53.78;98422.53;5062484;28;20200;-67
2022/01/17 11:37:34;;;;;;;9.77;8.37;;;;;;;9.43;54.41;98415.75;5049898;28;20199;-66
2022/01/17 11:40:01;;;;;;;10.23;8.37;;;;;;;9.67;53.79;98400.19;5071765;28;20227;-67
2022/01/17 11:42:32;;;;;;;8.93;7.73;;;;;;;9.79;54.33;98391.50;5049489;28;20207;-67